createdAt,value
2018-12-03T00:02:02.519Z,94251.08
2018-12-03T00:05:07.567Z,94253.48
2018-12-03T00:08:11.846Z,94263.11
2018-12-03T00:11:16.686Z,94263.30
2018-12-03T00:14:20.857Z,94260.29
2018-12-03T00:17:25.318Z,94254.22
2018-12-03T00:20:29.713Z,94263.64
2018-12-03T00:23:34.271Z,94265.18
2018-12-03T00:26:38.682Z,94272.36
2018-12-03T00:29:42.987Z,94275.42
2018-12-03T00:32:47.386Z,94272.66
2018-12-03T00:35:51.878Z,94269.56
2018-12-03T00:38:56.227Z,94267.22
2018-12-03T00:42:00.623Z,94264.45
2018-12-03T00:45:05.255Z,94268.10
2018-12-03T00:48:09.565Z,94261.55
2018-12-03T00:51:13.965Z,94258.86
2018-12-03T00:54:18.394Z,94270.97
2018-12-03T00:57:22.703Z,94266.59
2018-12-03T01:00:27.084Z,94268.25
2018-12-03T01:03:31.853Z,94276.45
2018-12-03T01:06:36.242Z,94272.08
2018-12-03T01:09:40.641Z,94273.11
2018-12-03T01:12:45.087Z,94268.17
2018-12-03T01:15:49.368Z,94268.73
2018-12-03T01:18:54.438Z,94271.53
2018-12-03T01:21:58.722Z,94274.52
2018-12-03T01:25:03.017Z,94281.84
2018-12-03T01:28:07.411Z,94281.91
2018-12-03T01:31:18.287Z,94285.56
2018-12-03T01:34:22.611Z,94287.22
2018-12-03T01:37:27.304Z,94286.44
2018-12-03T01:40:31.588Z,94286.77
2018-12-03T01:43:35.869Z,94287.61
2018-12-03T01:46:40.309Z,94284.52
2018-12-03T01:49:44.722Z,94275.28
2018-12-03T01:52:49.063Z,94280.03
2018-12-03T01:55:53.503Z,94278.55
2018-12-03T01:58:57.798Z,94274.46
2018-12-03T02:02:02.054Z,94275.79
2018-12-03T02:05:07.073Z,94278.99
2018-12-03T02:08:11.461Z,94275.05
2018-12-03T02:11:15.998Z,94268.54
2018-12-03T02:14:20.282Z,94271.30
2018-12-03T02:17:24.681Z,94273.09
2018-12-03T02:20:28.972Z,94271.81
2018-12-03T02:23:33.575Z,94270.30
2018-12-03T02:26:37.894Z,94266.95
2018-12-03T02:29:42.249Z,94257.94
2018-12-03T02:32:46.795Z,94254.55
2018-12-03T02:35:51.230Z,94265.62
2018-12-03T02:38:55.618Z,94257.85
2018-12-03T02:41:59.931Z,94257.89
2018-12-03T02:45:04.509Z,94257.67
2018-12-03T02:48:08.836Z,94258.27
2018-12-03T02:51:13.143Z,94265.22
2018-12-03T02:54:17.478Z,94265.55
2018-12-03T02:57:21.875Z,94267.14
2018-12-03T03:00:26.157Z,94256.35
2018-12-03T03:03:30.493Z,94264.34
2018-12-03T03:06:35.042Z,94262.58
2018-12-03T03:09:39.367Z,94266.92
2018-12-03T03:12:43.731Z,94270.48
2018-12-03T03:15:48.022Z,94280.75
2018-12-03T03:18:52.339Z,94279.65
2018-12-03T03:21:56.656Z,94271.75
2018-12-03T03:25:00.988Z,94267.31
2018-12-03T03:28:05.294Z,94277.27
2018-12-03T03:31:09.715Z,94272.16
2018-12-03T03:34:13.902Z,94277.69
2018-12-03T03:37:18.215Z,94277.60
2018-12-03T03:40:22.559Z,94275.48
2018-12-03T03:43:26.882Z,94275.73
2018-12-03T03:46:31.187Z,94274.18
2018-12-03T03:49:35.491Z,94272.75
2018-12-03T03:52:39.841Z,94268.66
2018-12-03T03:55:44.157Z,94269.87
2018-12-03T03:58:48.490Z,94276.58
2018-12-03T04:01:52.768Z,94287.40
2018-12-03T04:04:57.081Z,94288.95
2018-12-03T04:08:02.791Z,94288.37
2018-12-03T04:11:07.248Z,94280.97
2018-12-03T04:14:11.729Z,94282.27
2018-12-03T04:17:16.932Z,94276.41
2018-12-03T04:20:21.712Z,94268.61
2018-12-03T04:23:26.353Z,94264.05
2018-12-03T04:26:30.931Z,94277.22
2018-12-03T04:29:35.229Z,94269.30
2018-12-03T04:32:40.342Z,94269.30
2018-12-03T04:35:44.683Z,94269.87
2018-12-03T04:38:49.083Z,94282.52
2018-12-03T04:41:53.855Z,94292.45
2018-12-03T04:44:58.162Z,94299.86
2018-12-03T04:48:03.389Z,94301.40
2018-12-03T04:51:07.841Z,94295.22
2018-12-03T04:54:12.147Z,94283.81
2018-12-03T04:57:16.549Z,94285.06
2018-12-03T05:00:21.808Z,94283.40
2018-12-03T05:03:26.238Z,94276.63
2018-12-03T05:06:30.542Z,94275.64
2018-12-03T05:09:34.835Z,94273.09
2018-12-03T05:12:39.279Z,94265.38
2018-12-03T05:15:43.546Z,94268.47
2018-12-03T05:18:48.357Z,94264.94
2018-12-03T05:21:52.787Z,94273.88
2018-12-03T05:24:57.097Z,94268.91
2018-12-03T05:28:02.638Z,94270.45
2018-12-03T05:31:07.092Z,94265.55
2018-12-03T05:34:11.385Z,94270.92
2018-12-03T05:37:15.718Z,94272.05
2018-12-03T05:40:25.573Z,94275.13
2018-12-03T05:43:29.881Z,94274.67
2018-12-03T05:46:34.883Z,94278.80
2018-12-03T05:49:38.453Z,94282.68
2018-12-03T05:52:43.364Z,94278.77
2018-12-03T05:55:47.650Z,94286.19
2018-12-03T05:58:52.862Z,94282.02
2018-12-03T06:01:57.257Z,94280.91
2018-12-03T06:05:01.553Z,94271.97
2018-12-03T06:08:06.305Z,94271.80
2018-12-03T06:11:10.584Z,94274.31
2018-12-03T06:14:14.956Z,94265.81
2018-12-03T06:17:19.290Z,94269.37
2018-12-03T06:20:24.157Z,94274.76
2018-12-03T06:23:28.526Z,94266.30
2018-12-03T06:26:32.930Z,94272.00
2018-12-03T06:29:37.193Z,94275.66
2018-12-03T06:32:41.517Z,94277.02
2018-12-03T06:35:45.798Z,94277.38
2018-12-03T06:38:50.110Z,94282.69
2018-12-03T06:41:54.418Z,94295.17
2018-12-03T06:44:58.689Z,94297.55
2018-12-03T06:48:07.808Z,94296.86
2018-12-03T06:51:12.127Z,94298.33
2018-12-03T06:54:16.450Z,94306.62
2018-12-03T06:57:20.770Z,94305.14
2018-12-03T07:00:26.036Z,94310.27
2018-12-03T07:03:30.334Z,94321.42
2018-12-03T07:06:34.690Z,94321.35
2018-12-03T07:09:38.971Z,94319.73
2018-12-03T07:12:43.714Z,94324.00
2018-12-03T07:15:51.817Z,94331.66
2018-12-03T07:18:56.154Z,94330.64
2018-12-03T07:22:00.492Z,94331.19
2018-12-03T07:25:05.109Z,94345.36
2018-12-03T07:28:09.437Z,94339.13
2018-12-03T07:31:13.744Z,94350.73
2018-12-03T07:34:18.171Z,94343.07
2018-12-03T07:37:22.482Z,94346.13
2018-12-03T07:40:26.901Z,94346.95
2018-12-03T07:43:31.237Z,94351.73
2018-12-03T07:46:35.653Z,94349.98
2018-12-03T07:49:40.016Z,94348.31
2018-12-03T07:52:44.501Z,94352.01
2018-12-03T07:55:48.778Z,94356.50
2018-12-03T07:58:53.047Z,94360.52
2018-12-03T08:01:57.406Z,94357.47
2018-12-03T08:05:01.705Z,94369.41
2018-12-03T08:08:07.115Z,94364.80
2018-12-03T08:11:11.486Z,94368.08
2018-12-03T08:14:15.887Z,94370.89
2018-12-03T08:17:20.179Z,94368.05
2018-12-03T08:20:42.622Z,94363.99
2018-12-03T08:23:57.210Z,94357.98
2018-12-03T08:27:01.524Z,94361.14
2018-12-03T08:30:11.325Z,94357.36
2018-12-03T08:33:15.813Z,94361.07
2018-12-03T08:36:20.130Z,94361.06
2018-12-03T08:39:24.473Z,94351.12
2018-12-03T08:42:28.873Z,94355.45
2018-12-03T08:45:33.209Z,94348.04
2018-12-03T08:48:40.668Z,94354.40
2018-12-03T08:51:45.017Z,94354.62
2018-12-03T08:54:49.313Z,94349.69
2018-12-03T08:57:53.658Z,94352.78
2018-12-03T09:00:58.121Z,94364.84
2018-12-03T09:04:06.817Z,94354.50
2018-12-03T09:07:11.085Z,94358.05
2018-12-03T09:10:16.533Z,94364.23
2018-12-03T09:13:22.738Z,94365.96
2018-12-03T09:16:27.029Z,94367.58
2018-12-03T09:19:31.398Z,94366.05
2018-12-03T09:22:35.744Z,94361.80
2018-12-03T09:25:40.146Z,94375.66
2018-12-03T09:28:44.498Z,94364.45
2018-12-03T09:31:48.905Z,94368.69
2018-12-03T09:34:53.213Z,94368.16
2018-12-03T09:37:57.513Z,94374.97
2018-12-03T09:41:05.812Z,94371.14
2018-12-03T09:44:07.500Z,94371.91
2018-12-03T09:47:11.910Z,94361.59
2018-12-03T09:50:22.388Z,94359.81
2018-12-03T09:53:26.845Z,94365.28
2018-12-03T09:56:37.358Z,94352.87
2018-12-03T09:59:41.681Z,94358.16
2018-12-03T10:02:45.997Z,94350.59
2018-12-03T10:05:57.846Z,94356.30
2018-12-03T10:09:02.348Z,94343.36
2018-12-03T10:12:08.814Z,94342.84
2018-12-03T10:15:14.966Z,94345.74
2018-12-03T10:18:19.283Z,94334.01
2018-12-03T10:21:23.614Z,94327.67
2018-12-03T10:24:27.995Z,94334.76
2018-12-03T10:27:32.363Z,94330.55
2018-12-03T10:30:36.842Z,94322.91
2018-12-03T10:33:41.499Z,94320.33
2018-12-03T10:36:55.186Z,94321.57
2018-12-03T10:39:59.726Z,94315.83
2018-12-03T10:43:05.440Z,94324.41
2018-12-03T10:46:11.163Z,94317.86
2018-12-03T10:49:15.529Z,94311.17
2018-12-03T10:55:57.874Z,94312.21
2018-12-03T10:59:02.263Z,94295.55
2018-12-03T11:02:12.372Z,94293.14
2018-12-03T11:05:22.008Z,94287.23
2018-12-03T11:08:26.425Z,94299.22
2018-12-03T11:11:30.879Z,94291.42
2018-12-03T11:14:35.329Z,94278.17
2018-12-03T11:17:39.643Z,94279.53
2018-12-03T11:20:44.178Z,94286.41
2018-12-03T11:23:48.692Z,94282.98
2018-12-03T11:26:57.457Z,94285.14
2018-12-03T11:30:02.304Z,94288.92
2018-12-03T11:33:06.746Z,94266.52
2018-12-03T11:36:11.306Z,94261.13
2018-12-03T11:39:44.537Z,94264.57
2018-12-03T11:42:49.112Z,94256.30
2018-12-03T11:45:53.742Z,94255.33
2018-12-03T11:48:58.291Z,94233.53
2018-12-03T11:52:04.776Z,94242.17
2018-12-03T11:55:09.557Z,94246.91
2018-12-03T11:58:13.912Z,94236.02
2018-12-03T12:01:18.313Z,94226.35
2018-12-03T12:04:22.656Z,94225.16
2018-12-03T12:07:27.105Z,94226.16
2018-12-03T12:10:31.429Z,94214.52
2018-12-03T12:13:35.755Z,94211.13
2018-12-03T12:16:40.113Z,94208.46
2018-12-03T12:19:44.457Z,94196.98
2018-12-03T12:22:48.765Z,94199.39
2018-12-03T12:25:53.222Z,94197.24
2018-12-03T12:28:57.679Z,94190.80
2018-12-03T12:32:02.249Z,94176.14
2018-12-03T12:35:07.154Z,94179.45
2018-12-03T12:38:11.511Z,94169.82
2018-12-03T12:41:16.306Z,94171.13
2018-12-03T12:44:20.726Z,94172.99
2018-12-03T12:47:25.147Z,94167.12
2018-12-03T12:50:29.648Z,94172.83
2018-12-03T12:53:34.165Z,94162.27
2018-12-03T12:56:38.640Z,94157.05
2018-12-03T12:59:43.220Z,94154.53
2018-12-03T13:02:51.040Z,94143.36
2018-12-03T13:05:56.625Z,94136.27
2018-12-03T13:08:59.920Z,94138.86
2018-12-03T13:12:05.140Z,94136.76
2018-12-03T13:15:14.771Z,94130.66
2018-12-03T13:18:19.062Z,94131.38
2018-12-03T13:21:23.355Z,94122.59
2018-12-03T13:24:27.795Z,94128.30
2018-12-03T13:27:32.166Z,94129.59
2018-12-03T13:30:36.646Z,94131.13
2018-12-03T13:33:41.043Z,94129.58
2018-12-03T13:36:45.405Z,94130.10
2018-12-03T13:39:50.374Z,94138.26
2018-12-03T13:42:54.286Z,94137.68
2018-12-03T13:45:58.630Z,94136.66
2018-12-03T13:49:03.097Z,94144.88
2018-12-03T13:52:08.550Z,94131.52
2018-12-03T13:55:18.262Z,94133.94
2018-12-03T13:58:23.303Z,94143.46
2018-12-03T14:01:27.874Z,94134.80
2018-12-03T14:04:32.226Z,94143.62
2018-12-03T14:07:46.747Z,94141.88
2018-12-03T14:11:15.177Z,94144.89
2018-12-03T14:14:45.517Z,94142.99
2018-12-03T14:18:02.190Z,94147.30
2018-12-03T14:21:16.652Z,94148.22
2018-12-03T14:24:22.591Z,94152.91
2018-12-03T14:27:27.131Z,94149.25
2018-12-03T14:30:31.525Z,94152.14
2018-12-03T14:33:36.374Z,94156.44
2018-12-03T14:36:40.803Z,94150.52
2018-12-03T14:39:45.497Z,94151.22
2018-12-03T14:42:50.017Z,94145.63
2018-12-03T14:45:54.541Z,94142.67
2018-12-03T14:48:59.076Z,94152.42
2018-12-03T14:52:03.455Z,94143.66
2018-12-03T14:55:08.515Z,94140.47
2018-12-03T14:58:56.715Z,94138.50
2018-12-03T15:02:01.494Z,94141.64
2018-12-03T15:05:07.062Z,94145.20
2018-12-03T15:08:11.759Z,94148.13
2018-12-03T15:11:16.168Z,94149.98
2018-12-03T15:14:20.783Z,94153.99
2018-12-03T15:17:25.409Z,94151.98
2018-12-03T15:20:30.017Z,94149.38
2018-12-03T15:23:35.244Z,94153.42
2018-12-03T15:26:39.752Z,94152.72
2018-12-03T15:29:45.311Z,94160.92
2018-12-03T15:32:49.733Z,94153.02
2018-12-03T15:35:54.145Z,94153.75
2018-12-03T15:38:58.803Z,94161.23
2018-12-03T15:42:03.172Z,94159.33
2018-12-03T15:45:09.742Z,94159.02
2018-12-03T15:48:14.011Z,94154.13
2018-12-03T15:51:18.400Z,94149.29
2018-12-03T15:54:23.316Z,94149.67
2018-12-03T15:57:42.589Z,94145.80
2018-12-03T16:00:47.004Z,94143.45
2018-12-03T16:03:51.340Z,94136.02
2018-12-03T16:06:55.761Z,94136.55
2018-12-03T16:10:00.209Z,94134.18
2018-12-03T16:13:05.515Z,94138.29
2018-12-03T16:16:09.961Z,94140.08
2018-12-03T16:19:14.394Z,94138.19
2018-12-03T16:22:18.890Z,94136.30
2018-12-03T16:25:23.436Z,94123.64
2018-12-03T16:28:28.092Z,94126.87
2018-12-03T16:31:32.531Z,94127.49
2018-12-03T16:34:36.914Z,94133.54
2018-12-03T16:37:41.383Z,94140.70
2018-12-03T16:40:45.729Z,94128.97
2018-12-03T16:43:50.113Z,94139.22
2018-12-03T16:46:55.985Z,94132.59
2018-12-03T16:50:00.298Z,94139.06
2018-12-03T16:53:04.478Z,94144.17
2018-12-03T16:56:09.043Z,94142.19
2018-12-03T16:59:13.562Z,94141.17
2018-12-03T17:02:18.058Z,94134.34
2018-12-03T17:05:22.604Z,94131.08
2018-12-03T17:08:27.155Z,94132.09
2018-12-03T17:11:31.790Z,94123.56
2018-12-03T17:14:36.292Z,94126.62
2018-12-03T17:17:40.804Z,94128.41
2018-12-03T17:20:57.798Z,94138.70
2018-12-03T17:24:26.119Z,94130.46
2018-12-03T17:27:30.671Z,94136.09
2018-12-03T17:30:35.198Z,94129.79
2018-12-03T17:33:39.641Z,94122.53
2018-12-03T17:36:44.069Z,94124.33
2018-12-03T17:39:48.382Z,94121.50
2018-12-03T17:42:53.375Z,94130.61
2018-12-03T17:45:57.845Z,94120.70
2018-12-03T17:49:02.154Z,94113.20
2018-12-03T17:52:06.458Z,94113.66
2018-12-03T17:55:10.801Z,94109.32
2018-12-03T17:58:15.894Z,94101.40
2018-12-03T18:01:20.180Z,94102.97
2018-12-03T18:04:24.485Z,94099.51
2018-12-03T18:07:28.815Z,94093.77
2018-12-03T18:10:33.883Z,94087.06
2018-12-03T18:13:38.315Z,94086.97
2018-12-03T18:16:42.675Z,94087.13
2018-12-03T18:19:51.624Z,94087.33
2018-12-03T18:22:56.223Z,94079.19
2018-12-03T18:26:01.840Z,94069.00
2018-12-03T18:29:06.350Z,94068.16
2018-12-03T18:32:10.914Z,94064.56
2018-12-03T18:35:15.303Z,94057.05
2018-12-03T18:38:20.294Z,94056.95
2018-12-03T18:41:24.741Z,94052.52
2018-12-03T18:44:29.197Z,94045.66
2018-12-03T18:47:33.562Z,94053.96
2018-12-03T18:50:39.906Z,94038.31
2018-12-03T18:53:44.393Z,94039.79
2018-12-03T18:56:48.818Z,94046.48
2018-12-03T18:59:53.422Z,94042.19
2018-12-03T19:02:58.035Z,94038.57
2018-12-03T19:06:03.921Z,94034.71
2018-12-03T19:09:09.327Z,94034.27
2018-12-03T19:12:13.894Z,94024.30
2018-12-03T19:15:19.601Z,94028.98
2018-12-03T19:18:23.918Z,94021.44
2018-12-03T19:21:28.238Z,94013.14
2018-12-03T19:24:32.653Z,94020.23
2018-12-03T19:27:38.365Z,94012.36
2018-12-03T19:30:42.757Z,94009.98
2018-12-03T19:33:47.632Z,94001.16
2018-12-03T19:37:25.138Z,93999.73
2018-12-03T19:40:28.592Z,94000.05
2018-12-03T19:43:33.848Z,94005.51
2018-12-03T19:46:37.452Z,94000.92
2018-12-03T19:49:40.763Z,94008.19
2018-12-03T19:52:44.355Z,94005.05
2018-12-03T19:55:48.181Z,93996.03
2018-12-03T19:58:51.531Z,93995.21
2018-12-03T20:01:54.922Z,93997.19
2018-12-03T20:05:00.227Z,93997.93
2018-12-03T20:08:03.718Z,94008.31
2018-12-03T20:11:07.066Z,94019.68
2018-12-03T20:14:10.407Z,94039.08
2018-12-03T20:17:13.706Z,94031.34
2018-12-03T20:20:17.081Z,94040.02
2018-12-03T20:23:20.882Z,94052.20
2018-12-03T20:26:24.282Z,94068.62
2018-12-03T20:29:27.798Z,94065.42
2018-12-03T20:32:31.804Z,94060.36
2018-12-03T20:35:36.583Z,94077.00
2018-12-03T20:38:40.028Z,94082.27
2018-12-03T20:41:43.586Z,94086.70
2018-12-03T20:44:46.997Z,94093.07
2018-12-03T20:47:51.149Z,94099.86
2018-12-03T20:50:54.848Z,94099.41
2018-12-03T20:53:58.257Z,94085.66
2018-12-03T20:57:01.578Z,94094.06
2018-12-03T21:00:09.370Z,94099.08
2018-12-03T21:03:12.757Z,94092.47
2018-12-03T21:06:16.202Z,94115.38
2018-12-03T21:09:19.507Z,94109.73
2018-12-03T21:12:22.974Z,94117.34
2018-12-03T21:15:26.543Z,94134.05
2018-12-03T21:18:29.859Z,94162.00
2018-12-03T21:21:33.175Z,94154.02
2018-12-03T21:24:36.938Z,94173.98
2018-12-03T21:27:40.476Z,94184.45
2018-12-03T21:30:43.878Z,94192.81
2018-12-03T21:33:47.175Z,94200.04
2018-12-03T21:36:50.893Z,94203.47
2018-12-03T21:39:54.193Z,94210.88
2018-12-03T21:42:57.606Z,94217.30
2018-12-03T21:46:01.181Z,94226.24
2018-12-03T21:49:04.611Z,94240.16
2018-12-03T21:52:08.925Z,94224.02
2018-12-03T21:55:13.182Z,94243.94
2018-12-03T21:58:17.691Z,94238.03
2018-12-03T22:01:21.141Z,94241.93
2018-12-03T22:04:24.446Z,94253.75
2018-12-03T22:07:28.229Z,94262.36
2018-12-03T22:10:31.622Z,94259.40
2018-12-03T22:13:34.921Z,94269.53
2018-12-03T22:16:38.282Z,94259.93
2018-12-03T22:19:41.579Z,94271.67
2018-12-03T22:22:45.750Z,94268.14
2018-12-03T22:25:49.042Z,94279.22
2018-12-03T22:28:52.342Z,94300.84
2018-12-03T22:31:55.880Z,94301.83
2018-12-03T22:34:59.262Z,94295.34
2018-12-03T22:38:02.573Z,94299.80
2018-12-03T22:41:05.921Z,94302.56
2018-12-03T22:44:09.257Z,94305.77
2018-12-03T22:47:12.596Z,94293.25
2018-12-03T22:50:15.963Z,94299.44
2018-12-03T22:53:19.258Z,94284.63
2018-12-03T22:56:22.655Z,94289.49
2018-12-03T22:59:25.994Z,94306.17
2018-12-03T23:02:29.337Z,94311.20
2018-12-03T23:05:32.697Z,94330.94
2018-12-03T23:08:35.989Z,94333.48
2018-12-03T23:11:39.325Z,94346.16
2018-12-03T23:14:42.644Z,94329.81
2018-12-03T23:17:45.949Z,94346.95
2018-12-03T23:20:49.237Z,94356.67
2018-12-03T23:23:52.622Z,94371.72
2018-12-03T23:26:56.029Z,94367.76
2018-12-03T23:29:59.520Z,94376.35
2018-12-03T23:33:02.842Z,94378.93
2018-12-03T23:36:06.314Z,94390.27
2018-12-03T23:39:09.722Z,94380.26
2018-12-03T23:42:13.094Z,94396.36
2018-12-03T23:45:16.418Z,94395.94
2018-12-03T23:48:19.741Z,94400.13
2018-12-03T23:51:23.069Z,94410.16
2018-12-03T23:54:26.364Z,94388.09
2018-12-03T23:57:29.742Z,94407.19
